Time;durP1;ratioP1;P1;durP2;ratioP2;P2;SDS_P1;SDS_P2;PMS_P1;PMS_P2;Temp;Humidity;BMP_temperature;BMP_pressure;BME280_temperature;BME280_humidity;BME280_pressure;Samples;Min_cycle;Max_cycle;Signal;HPM_P1;HPM_P2
2023/03/14 00:05:07;;;;;;;;;40.50;37.25;;;;;;;;6488347;39;8916;-63
2023/03/14 00:11:20;;;;;;;;;35.00;31.75;;;;;;;;6487783;46;9020;-63
2023/03/14 00:17:27;;;;;;;;;35.00;31.67;;;;;;;;6488274;39;8969;-64
2023/03/14 00:23:35;;;;;;;;;27.25;24.50;;;;;;;;6489940;31;9324;-64
2023/03/14 00:29:42;;;;;;;;;30.75;25.50;;;;;;;;6487921;46;8945;-64
2023/03/14 00:36:01;;;;;;;;;29.00;24.50;;;;;;;;6488051;46;8884;-63
2023/03/14 00:42:06;;;;;;;;;17.50;16.25;;;;;;;;6488167;39;8972;-63
2023/03/14 00:48:18;;;;;;;;;14.75;13.50;;;;;;;;6488870;31;9565;-63
2023/03/14 00:54:24;;;;;;;;;16.50;16.00;;;;;;;;6488655;39;8925;-62
2023/03/14 01:00:28;;;;;;;;;36.00;32.00;;;;;;;;6487635;31;9547;-66
2023/03/14 01:06:32;;;;;;;;;45.50;42.75;;;;;;;;6488808;39;9005;-65
2023/03/14 01:12:35;;;;;;;;;50.00;45.75;;;;;;;;6489071;39;8980;-64
2023/03/14 01:18:43;;;;;;;;;41.75;37.25;;;;;;;;6488559;39;9527;-62
2023/03/14 01:24:45;;;;;;;;;18.75;17.50;;;;;;;;6488280;46;8932;-64
2023/03/14 01:30:50;;;;;;;;;18.75;18.75;;;;;;;;6487021;39;8903;-65
2023/03/14 01:36:54;;;;;;;;;17.25;17.25;;;;;;;;6487632;39;8920;-63
2023/03/14 01:43:13;;;;;;;;;14.00;14.00;;;;;;;;6487697;39;8892;-63
2023/03/14 01:49:31;;;;;;;;;11.75;11.00;;;;;;;;6487601;39;8948;-63
2023/03/14 01:55:44;;;;;;;;;12.25;12.25;;;;;;;;6487512;39;9562;-63
2023/03/14 02:01:50;;;;;;;;;19.50;19.00;;;;;;;;6486539;46;8913;-63
2023/03/14 02:07:56;;;;;;;;;17.75;16.00;;;;;;;;6488320;31;8955;-63
2023/03/14 02:14:24;;;;;;;;;15.50;15.00;;;;;;;;6487545;46;9023;-63
2023/03/14 02:21:43;;;;;;;;;22.50;20.00;;;;;;;;6487407;39;8848;-62
2023/03/14 02:27:49;;;;;;;;;15.00;13.25;;;;;;;;6483660;39;9543;-63
2023/03/14 02:33:59;;;;;;;;;17.00;15.25;;;;;;;;6486798;31;8883;-62
2023/03/14 02:40:06;;;;;;;;;19.00;17.00;;;;;;;;6487372;31;8941;-63
2023/03/14 02:46:16;;;;;;;;;18.50;18.00;;;;;;;;6487697;39;8872;-63
2023/03/14 02:52:21;;;;;;;;;17.25;17.25;;;;;;;;6486826;31;8893;-63
2023/03/14 02:58:27;;;;;;;;;15.75;14.75;;;;;;;;6487079;31;8914;-63
2023/03/14 03:04:39;;;;;;;;;20.00;15.75;;;;;;;;6488313;46;8921;-63
2023/03/14 03:10:43;;;;;;;;;23.50;19.00;;;;;;;;6489303;39;8892;-62
2023/03/14 03:16:49;;;;;;;;;30.75;25.50;;;;;;;;6488796;46;8953;-64
2023/03/14 03:22:54;;;;;;;;;28.50;25.25;;;;;;;;6488674;39;8860;-63
2023/03/14 03:28:57;;;;;;;;;32.75;26.75;;;;;;;;6489130;39;8881;-64
2023/03/14 03:35:03;;;;;;;;;34.75;28.50;;;;;;;;6488055;46;8916;-64
2023/03/14 03:41:09;;;;;;;;;18.50;13.75;;;;;;;;6488043;39;9040;-62
2023/03/14 03:47:14;;;;;;;;;16.25;16.25;;;;;;;;6489398;39;8884;-63
2023/03/14 03:53:20;;;;;;;;;16.50;16.50;;;;;;;;6489651;39;8940;-65
2023/03/14 03:59:42;;;;;;;;;16.50;15.75;;;;;;;;6488996;31;8994;-64
2023/03/14 04:06:06;;;;;;;;;18.75;16.50;;;;;;;;6462888;31;9108;-63
2023/03/14 04:12:12;;;;;;;;;16.50;15.00;;;;;;;;6491937;39;8972;-63
